sensor_id;sensor_type;location;lat;lon;timestamp;temperature;humidity
32522;DHT22;18963;51.504;5.316;2023-08-12T00:00:01;20.10;99.90
32522;DHT22;18963;51.504;5.316;2023-08-12T00:02:39;20.10;99.90
32522;DHT22;18963;51.504;5.316;2023-08-12T00:05:05;20.10;99.90
32522;DHT22;18963;51.504;5.316;2023-08-12T00:07:32;20.10;99.90
32522;DHT22;18963;51.504;5.316;2023-08-12T00:09:58;20.00;99.90
32522;DHT22;18963;51.504;5.316;2023-08-12T00:12:23;20.00;99.90
32522;DHT22;18963;51.504;5.316;2023-08-12T00:14:49;20.00;99.90
32522;DHT22;18963;51.504;5.316;2023-08-12T00:17:14;20.00;99.90
32522;DHT22;18963;51.504;5.316;2023-08-12T00:19:40;20.00;99.90
32522;DHT22;18963;51.504;5.316;2023-08-12T00:22:05;20.00;99.90
32522;DHT22;18963;51.504;5.316;2023-08-12T00:24:31;20.00;99.90
32522;DHT22;18963;51.504;5.316;2023-08-12T00:26:56;20.00;99.90
32522;DHT22;18963;51.504;5.316;2023-08-12T00:29:22;20.00;99.90
32522;DHT22;18963;51.504;5.316;2023-08-12T00:31:47;20.00;99.90
32522;DHT22;18963;51.504;5.316;2023-08-12T00:34:13;20.00;99.90
32522;DHT22;18963;51.504;5.316;2023-08-12T00:36:38;20.00;99.90
32522;DHT22;18963;51.504;5.316;2023-08-12T00:39:03;20.00;99.90
32522;DHT22;18963;51.504;5.316;2023-08-12T00:41:29;20.00;99.90
32522;DHT22;18963;51.504;5.316;2023-08-12T00:43:55;20.00;99.90
32522;DHT22;18963;51.504;5.316;2023-08-12T00:46:21;20.00;99.90
32522;DHT22;18963;51.504;5.316;2023-08-12T00:48:46;20.00;99.90
32522;DHT22;18963;51.504;5.316;2023-08-12T00:51:12;20.00;99.90
32522;DHT22;18963;51.504;5.316;2023-08-12T00:53:38;20.00;99.90
32522;DHT22;18963;51.504;5.316;2023-08-12T00:56:04;20.00;99.90
32522;DHT22;18963;51.504;5.316;2023-08-12T00:58:29;20.00;99.90
32522;DHT22;18963;51.504;5.316;2023-08-12T01:00:55;20.00;99.90
32522;DHT22;18963;51.504;5.316;2023-08-12T01:03:24;20.00;99.90
32522;DHT22;18963;51.504;5.316;2023-08-12T01:05:49;20.00;99.90
32522;DHT22;18963;51.504;5.316;2023-08-12T01:08:15;19.90;99.90
32522;DHT22;18963;51.504;5.316;2023-08-12T01:10:42;20.00;99.90
32522;DHT22;18963;51.504;5.316;2023-08-12T01:13:15;19.90;99.90
32522;DHT22;18963;51.504;5.316;2023-08-12T01:15:43;19.90;99.90
32522;DHT22;18963;51.504;5.316;2023-08-12T01:18:08;20.00;99.90
32522;DHT22;18963;51.504;5.316;2023-08-12T01:20:35;20.00;99.90
32522;DHT22;18963;51.504;5.316;2023-08-12T01:23:13;19.90;99.90
32522;DHT22;18963;51.504;5.316;2023-08-12T01:25:39;19.90;99.90
32522;DHT22;18963;51.504;5.316;2023-08-12T01:28:05;19.90;99.90
32522;DHT22;18963;51.504;5.316;2023-08-12T01:30:30;19.90;99.90
32522;DHT22;18963;51.504;5.316;2023-08-12T01:33:01;19.90;99.90
32522;DHT22;18963;51.504;5.316;2023-08-12T01:35:40;19.90;99.90
32522;DHT22;18963;51.504;5.316;2023-08-12T01:38:07;19.90;99.90
32522;DHT22;18963;51.504;5.316;2023-08-12T01:40:34;19.90;99.90
32522;DHT22;18963;51.504;5.316;2023-08-12T01:43:00;19.90;99.90
32522;DHT22;18963;51.504;5.316;2023-08-12T01:45:26;19.90;99.90
32522;DHT22;18963;51.504;5.316;2023-08-12T01:47:52;19.90;99.90
32522;DHT22;18963;51.504;5.316;2023-08-12T01:50:17;19.90;99.90
32522;DHT22;18963;51.504;5.316;2023-08-12T01:52:44;19.90;99.90
32522;DHT22;18963;51.504;5.316;2023-08-12T01:55:09;19.90;99.90
32522;DHT22;18963;51.504;5.316;2023-08-12T01:57:35;19.90;99.90
32522;DHT22;18963;51.504;5.316;2023-08-12T02:00:01;19.90;99.90
32522;DHT22;18963;51.504;5.316;2023-08-12T02:02:27;19.90;99.90
32522;DHT22;18963;51.504;5.316;2023-08-12T02:04:52;19.90;99.90
32522;DHT22;18963;51.504;5.316;2023-08-12T02:07:17;19.90;99.90
32522;DHT22;18963;51.504;5.316;2023-08-12T02:09:43;19.90;99.90
32522;DHT22;18963;51.504;5.316;2023-08-12T02:12:08;20.00;99.90
32522;DHT22;18963;51.504;5.316;2023-08-12T02:14:34;19.90;99.90
32522;DHT22;18963;51.504;5.316;2023-08-12T02:17:01;19.90;99.90
32522;DHT22;18963;51.504;5.316;2023-08-12T02:19:27;19.90;99.90
32522;DHT22;18963;51.504;5.316;2023-08-12T02:21:52;19.90;99.90
32522;DHT22;18963;51.504;5.316;2023-08-12T02:24:18;19.90;99.90
32522;DHT22;18963;51.504;5.316;2023-08-12T02:26:43;19.90;99.90
32522;DHT22;18963;51.504;5.316;2023-08-12T02:29:08;19.90;99.90
32522;DHT22;18963;51.504;5.316;2023-08-12T02:31:34;19.90;99.90
32522;DHT22;18963;51.504;5.316;2023-08-12T02:33:59;19.90;99.90
32522;DHT22;18963;51.504;5.316;2023-08-12T02:36:25;19.90;99.90
32522;DHT22;18963;51.504;5.316;2023-08-12T02:38:52;19.90;99.90
32522;DHT22;18963;51.504;5.316;2023-08-12T02:41:17;19.80;99.90
32522;DHT22;18963;51.504;5.316;2023-08-12T02:43:42;19.80;99.90
32522;DHT22;18963;51.504;5.316;2023-08-12T02:46:08;19.80;99.90
32522;DHT22;18963;51.504;5.316;2023-08-12T02:48:33;19.80;99.90
32522;DHT22;18963;51.504;5.316;2023-08-12T02:50:59;19.80;99.90
32522;DHT22;18963;51.504;5.316;2023-08-12T02:53:24;19.70;99.90
32522;DHT22;18963;51.504;5.316;2023-08-12T02:55:50;19.80;99.90
32522;DHT22;18963;51.504;5.316;2023-08-12T02:58:15;19.70;99.90
32522;DHT22;18963;51.504;5.316;2023-08-12T03:00:41;19.70;99.90
32522;DHT22;18963;51.504;5.316;2023-08-12T03:03:09;19.70;99.90
32522;DHT22;18963;51.504;5.316;2023-08-12T03:05:34;19.70;99.90
32522;DHT22;18963;51.504;5.316;2023-08-12T03:08:03;19.70;99.90
32522;DHT22;18963;51.504;5.316;2023-08-12T03:10:29;19.60;99.90
32522;DHT22;18963;51.504;5.316;2023-08-12T03:12:55;19.60;99.90
32522;DHT22;18963;51.504;5.316;2023-08-12T03:15:20;19.60;99.90
32522;DHT22;18963;51.504;5.316;2023-08-12T03:17:46;19.60;99.90
32522;DHT22;18963;51.504;5.316;2023-08-12T03:20:11;19.60;99.90
32522;DHT22;18963;51.504;5.316;2023-08-12T03:22:37;19.60;99.90
32522;DHT22;18963;51.504;5.316;2023-08-12T03:25:03;19.50;99.90
32522;DHT22;18963;51.504;5.316;2023-08-12T03:27:29;19.60;99.90
32522;DHT22;18963;51.504;5.316;2023-08-12T03:29:55;19.60;99.90
32522;DHT22;18963;51.504;5.316;2023-08-12T03:32:20;19.60;99.90
32522;DHT22;18963;51.504;5.316;2023-08-12T03:34:46;19.50;99.90
32522;DHT22;18963;51.504;5.316;2023-08-12T03:37:12;19.50;99.90
32522;DHT22;18963;51.504;5.316;2023-08-12T03:39:37;19.50;99.90
32522;DHT22;18963;51.504;5.316;2023-08-12T03:42:03;19.40;99.90
32522;DHT22;18963;51.504;5.316;2023-08-12T03:44:28;19.40;99.90
32522;DHT22;18963;51.504;5.316;2023-08-12T03:46:54;19.40;99.90
32522;DHT22;18963;51.504;5.316;2023-08-12T03:49:19;19.40;99.90
32522;DHT22;18963;51.504;5.316;2023-08-12T03:51:45;19.30;99.90
32522;DHT22;18963;51.504;5.316;2023-08-12T03:54:10;19.30;99.90
32522;DHT22;18963;51.504;5.316;2023-08-12T03:56:36;19.30;99.90
32522;DHT22;18963;51.504;5.316;2023-08-12T03:59:01;19.30;99.90
32522;DHT22;18963;51.504;5.316;2023-08-12T04:01:27;19.30;99.90
32522;DHT22;18963;51.504;5.316;2023-08-12T04:03:52;19.30;99.90
32522;DHT22;18963;51.504;5.316;2023-08-12T04:06:18;19.30;99.90
32522;DHT22;18963;51.504;5.316;2023-08-12T04:08:43;19.30;99.90
32522;DHT22;18963;51.504;5.316;2023-08-12T04:11:09;19.40;99.90
32522;DHT22;18963;51.504;5.316;2023-08-12T04:13:34;19.40;99.90
32522;DHT22;18963;51.504;5.316;2023-08-12T04:16:00;19.40;99.90
32522;DHT22;18963;51.504;5.316;2023-08-12T04:18:25;19.30;99.90
32522;DHT22;18963;51.504;5.316;2023-08-12T04:20:51;19.30;99.90
32522;DHT22;18963;51.504;5.316;2023-08-12T04:23:17;19.30;99.90
32522;DHT22;18963;51.504;5.316;2023-08-12T04:25:43;19.30;99.90
32522;DHT22;18963;51.504;5.316;2023-08-12T04:28:09;19.30;99.90
32522;DHT22;18963;51.504;5.316;2023-08-12T04:30:35;19.30;99.90
32522;DHT22;18963;51.504;5.316;2023-08-12T04:33:00;19.30;99.90
32522;DHT22;18963;51.504;5.316;2023-08-12T04:35:26;19.20;99.90
32522;DHT22;18963;51.504;5.316;2023-08-12T04:37:51;19.20;99.90
32522;DHT22;18963;51.504;5.316;2023-08-12T04:40:17;19.20;99.90
32522;DHT22;18963;51.504;5.316;2023-08-12T04:42:42;19.10;99.90
32522;DHT22;18963;51.504;5.316;2023-08-12T04:45:08;19.10;99.90
32522;DHT22;18963;51.504;5.316;2023-08-12T04:47:33;19.10;99.90
32522;DHT22;18963;51.504;5.316;2023-08-12T04:49:59;19.10;99.90
32522;DHT22;18963;51.504;5.316;2023-08-12T04:52:24;19.10;99.90
32522;DHT22;18963;51.504;5.316;2023-08-12T04:54:52;19.10;99.90
32522;DHT22;18963;51.504;5.316;2023-08-12T04:57:18;19.00;99.90
32522;DHT22;18963;51.504;5.316;2023-08-12T04:59:43;19.00;99.90
32522;DHT22;18963;51.504;5.316;2023-08-12T05:02:09;19.00;99.90
32522;DHT22;18963;51.504;5.316;2023-08-12T05:04:34;19.00;99.90
32522;DHT22;18963;51.504;5.316;2023-08-12T05:06:59;18.90;99.90
32522;DHT22;18963;51.504;5.316;2023-08-12T05:09:25;18.90;99.90
32522;DHT22;18963;51.504;5.316;2023-08-12T05:11:59;18.90;99.90
32522;DHT22;18963;51.504;5.316;2023-08-12T05:14:28;18.90;99.90
32522;DHT22;18963;51.504;5.316;2023-08-12T05:16:53;18.90;99.90
32522;DHT22;18963;51.504;5.316;2023-08-12T05:19:19;18.90;99.90
32522;DHT22;18963;51.504;5.316;2023-08-12T05:21:44;18.80;99.90
32522;DHT22;18963;51.504;5.316;2023-08-12T05:24:10;18.80;99.90
32522;DHT22;18963;51.504;5.316;2023-08-12T05:26:36;18.80;99.90
32522;DHT22;18963;51.504;5.316;2023-08-12T05:29:02;18.80;99.90
32522;DHT22;18963;51.504;5.316;2023-08-12T05:31:27;18.80;99.90
32522;DHT22;18963;51.504;5.316;2023-08-12T05:33:52;18.80;99.90
32522;DHT22;18963;51.504;5.316;2023-08-12T05:36:18;18.80;99.90
32522;DHT22;18963;51.504;5.316;2023-08-12T05:38:43;18.80;99.90
32522;DHT22;18963;51.504;5.316;2023-08-12T05:41:09;18.80;99.90
32522;DHT22;18963;51.504;5.316;2023-08-12T05:43:35;18.80;99.90
32522;DHT22;18963;51.504;5.316;2023-08-12T05:46:00;18.80;99.90
32522;DHT22;18963;51.504;5.316;2023-08-12T05:48:25;18.80;99.90
32522;DHT22;18963;51.504;5.316;2023-08-12T05:50:51;18.80;99.90
32522;DHT22;18963;51.504;5.316;2023-08-12T05:53:16;18.80;99.90
32522;DHT22;18963;51.504;5.316;2023-08-12T05:55:42;18.90;99.90
32522;DHT22;18963;51.504;5.316;2023-08-12T05:58:07;18.90;99.90
32522;DHT22;18963;51.504;5.316;2023-08-12T06:00:33;18.90;99.90
32522;DHT22;18963;51.504;5.316;2023-08-12T06:02:58;18.90;99.90
32522;DHT22;18963;51.504;5.316;2023-08-12T06:05:23;18.90;99.90
32522;DHT22;18963;51.504;5.316;2023-08-12T06:07:49;18.90;99.90
32522;DHT22;18963;51.504;5.316;2023-08-12T06:10:14;19.00;99.90
32522;DHT22;18963;51.504;5.316;2023-08-12T06:12:40;18.90;99.90
32522;DHT22;18963;51.504;5.316;2023-08-12T06:15:05;19.00;99.90
32522;DHT22;18963;51.504;5.316;2023-08-12T06:17:31;19.00;99.90
32522;DHT22;18963;51.504;5.316;2023-08-12T06:19:56;19.00;99.90
32522;DHT22;18963;51.504;5.316;2023-08-12T06:22:22;19.00;99.90
32522;DHT22;18963;51.504;5.316;2023-08-12T06:24:47;19.00;99.90
32522;DHT22;18963;51.504;5.316;2023-08-12T06:27:13;19.00;99.90
32522;DHT22;18963;51.504;5.316;2023-08-12T06:29:38;19.00;99.90
32522;DHT22;18963;51.504;5.316;2023-08-12T06:32:04;19.00;99.90
32522;DHT22;18963;51.504;5.316;2023-08-12T06:34:29;19.00;99.90
32522;DHT22;18963;51.504;5.316;2023-08-12T06:36:55;19.00;99.90
32522;DHT22;18963;51.504;5.316;2023-08-12T06:39:20;19.10;99.90
32522;DHT22;18963;51.504;5.316;2023-08-12T06:41:46;19.10;99.90
32522;DHT22;18963;51.504;5.316;2023-08-12T06:44:11;19.20;99.90
32522;DHT22;18963;51.504;5.316;2023-08-12T06:46:36;19.20;99.90
32522;DHT22;18963;51.504;5.316;2023-08-12T06:49:02;19.20;99.90
32522;DHT22;18963;51.504;5.316;2023-08-12T06:51:27;19.30;99.90
32522;DHT22;18963;51.504;5.316;2023-08-12T06:53:53;19.30;99.90
32522;DHT22;18963;51.504;5.316;2023-08-12T06:56:18;19.30;99.90
32522;DHT22;18963;51.504;5.316;2023-08-12T06:58:44;19.40;99.90
32522;DHT22;18963;51.504;5.316;2023-08-12T07:01:09;19.50;99.90
32522;DHT22;18963;51.504;5.316;2023-08-12T07:03:34;19.50;99.90
32522;DHT22;18963;51.504;5.316;2023-08-12T07:06:00;19.50;99.90
32522;DHT22;18963;51.504;5.316;2023-08-12T07:08:25;19.60;99.90
32522;DHT22;18963;51.504;5.316;2023-08-12T07:10:52;19.60;99.90
32522;DHT22;18963;51.504;5.316;2023-08-12T07:13:18;19.70;99.90
32522;DHT22;18963;51.504;5.316;2023-08-12T07:15:43;19.70;99.90
32522;DHT22;18963;51.504;5.316;2023-08-12T07:18:09;19.70;99.90
32522;DHT22;18963;51.504;5.316;2023-08-12T07:20:34;19.70;99.90
32522;DHT22;18963;51.504;5.316;2023-08-12T07:22:59;19.80;99.90
32522;DHT22;18963;51.504;5.316;2023-08-12T07:25:25;19.80;99.90
32522;DHT22;18963;51.504;5.316;2023-08-12T07:27:50;19.80;99.90
32522;DHT22;18963;51.504;5.316;2023-08-12T07:30:16;19.80;99.90
32522;DHT22;18963;51.504;5.316;2023-08-12T07:32:42;19.80;99.90
32522;DHT22;18963;51.504;5.316;2023-08-12T07:35:07;19.80;99.90
32522;DHT22;18963;51.504;5.316;2023-08-12T07:37:33;19.80;99.90
32522;DHT22;18963;51.504;5.316;2023-08-12T07:39:58;19.80;99.90
32522;DHT22;18963;51.504;5.316;2023-08-12T07:42:24;19.90;99.90
32522;DHT22;18963;51.504;5.316;2023-08-12T07:44:49;19.90;99.90
32522;DHT22;18963;51.504;5.316;2023-08-12T07:47:15;20.00;99.90
32522;DHT22;18963;51.504;5.316;2023-08-12T07:49:41;20.10;99.90
32522;DHT22;18963;51.504;5.316;2023-08-12T07:52:06;20.10;99.90
32522;DHT22;18963;51.504;5.316;2023-08-12T07:54:32;20.30;99.90
32522;DHT22;18963;51.504;5.316;2023-08-12T07:56:57;20.30;99.90
32522;DHT22;18963;51.504;5.316;2023-08-12T07:59:23;20.40;99.90
32522;DHT22;18963;51.504;5.316;2023-08-12T08:01:48;20.50;99.90
32522;DHT22;18963;51.504;5.316;2023-08-12T08:04:13;20.60;99.90
32522;DHT22;18963;51.504;5.316;2023-08-12T08:06:39;20.60;99.90
32522;DHT22;18963;51.504;5.316;2023-08-12T08:09:04;20.60;99.90
32522;DHT22;18963;51.504;5.316;2023-08-12T08:11:30;20.50;99.90
32522;DHT22;18963;51.504;5.316;2023-08-12T08:14:00;20.50;99.90
32522;DHT22;18963;51.504;5.316;2023-08-12T08:16:25;20.50;99.90
32522;DHT22;18963;51.504;5.316;2023-08-12T08:18:51;20.50;99.90
32522;DHT22;18963;51.504;5.316;2023-08-12T08:21:16;20.40;99.90
32522;DHT22;18963;51.504;5.316;2023-08-12T08:23:42;20.40;99.90
32522;DHT22;18963;51.504;5.316;2023-08-12T08:26:08;20.50;99.90
32522;DHT22;18963;51.504;5.316;2023-08-12T08:28:33;20.50;99.90
32522;DHT22;18963;51.504;5.316;2023-08-12T08:30:59;20.60;99.90
32522;DHT22;18963;51.504;5.316;2023-08-12T08:33:25;20.60;99.90
32522;DHT22;18963;51.504;5.316;2023-08-12T08:35:50;20.60;99.90
32522;DHT22;18963;51.504;5.316;2023-08-12T08:38:16;20.60;99.90
32522;DHT22;18963;51.504;5.316;2023-08-12T08:40:41;20.60;99.90
32522;DHT22;18963;51.504;5.316;2023-08-12T08:43:07;20.60;99.90
32522;DHT22;18963;51.504;5.316;2023-08-12T08:45:33;20.60;99.90
32522;DHT22;18963;51.504;5.316;2023-08-12T08:47:59;20.60;99.90
32522;DHT22;18963;51.504;5.316;2023-08-12T08:50:25;20.60;99.90
32522;DHT22;18963;51.504;5.316;2023-08-12T08:52:51;20.60;99.90
32522;DHT22;18963;51.504;5.316;2023-08-12T08:55:16;20.50;99.90
32522;DHT22;18963;51.504;5.316;2023-08-12T08:57:43;20.50;99.90
32522;DHT22;18963;51.504;5.316;2023-08-12T09:00:09;20.40;99.90
32522;DHT22;18963;51.504;5.316;2023-08-12T09:02:36;20.40;99.90
32522;DHT22;18963;51.504;5.316;2023-08-12T09:05:02;20.30;99.90
32522;DHT22;18963;51.504;5.316;2023-08-12T09:07:28;20.40;99.90
32522;DHT22;18963;51.504;5.316;2023-08-12T09:09:55;20.40;99.90
32522;DHT22;18963;51.504;5.316;2023-08-12T09:12:21;20.40;99.90
32522;DHT22;18963;51.504;5.316;2023-08-12T09:14:47;20.50;99.90
32522;DHT22;18963;51.504;5.316;2023-08-12T09:17:14;20.50;99.90
32522;DHT22;18963;51.504;5.316;2023-08-12T09:19:40;20.60;99.90
32522;DHT22;18963;51.504;5.316;2023-08-12T09:22:06;20.60;99.90
32522;DHT22;18963;51.504;5.316;2023-08-12T09:24:32;20.50;99.90
32522;DHT22;18963;51.504;5.316;2023-08-12T09:26:57;20.40;99.90
32522;DHT22;18963;51.504;5.316;2023-08-12T09:29:23;20.30;99.90
32522;DHT22;18963;51.504;5.316;2023-08-12T09:31:50;20.40;99.90
32522;DHT22;18963;51.504;5.316;2023-08-12T09:34:17;20.40;99.90
32522;DHT22;18963;51.504;5.316;2023-08-12T09:36:43;20.40;99.90
32522;DHT22;18963;51.504;5.316;2023-08-12T09:39:09;20.30;99.90
32522;DHT22;18963;51.504;5.316;2023-08-12T09:41:34;20.40;99.90
32522;DHT22;18963;51.504;5.316;2023-08-12T09:44:01;20.30;99.90
32522;DHT22;18963;51.504;5.316;2023-08-12T09:46:26;20.40;99.90
32522;DHT22;18963;51.504;5.316;2023-08-12T09:48:53;20.50;99.90
32522;DHT22;18963;51.504;5.316;2023-08-12T09:51:19;20.50;99.90
32522;DHT22;18963;51.504;5.316;2023-08-12T09:53:44;20.60;99.90
32522;DHT22;18963;51.504;5.316;2023-08-12T09:56:11;20.60;99.90
32522;DHT22;18963;51.504;5.316;2023-08-12T09:58:36;20.70;99.90
32522;DHT22;18963;51.504;5.316;2023-08-12T10:01:02;20.70;99.90
32522;DHT22;18963;51.504;5.316;2023-08-12T10:03:28;20.90;99.90
32522;DHT22;18963;51.504;5.316;2023-08-12T10:05:54;21.10;99.90
32522;DHT22;18963;51.504;5.316;2023-08-12T10:08:19;21.20;99.90
32522;DHT22;18963;51.504;5.316;2023-08-12T10:10:45;21.40;99.90
32522;DHT22;18963;51.504;5.316;2023-08-12T10:13:10;21.50;99.90
32522;DHT22;18963;51.504;5.316;2023-08-12T10:15:36;21.60;99.90
32522;DHT22;18963;51.504;5.316;2023-08-12T10:18:03;21.80;99.90
32522;DHT22;18963;51.504;5.316;2023-08-12T10:20:28;22.00;99.90
32522;DHT22;18963;51.504;5.316;2023-08-12T10:22:55;22.10;99.90
32522;DHT22;18963;51.504;5.316;2023-08-12T10:25:20;22.30;99.90
32522;DHT22;18963;51.504;5.316;2023-08-12T10:27:49;22.40;99.90
32522;DHT22;18963;51.504;5.316;2023-08-12T10:30:14;22.60;99.90
32522;DHT22;18963;51.504;5.316;2023-08-12T10:32:40;22.70;99.90
32522;DHT22;18963;51.504;5.316;2023-08-12T10:35:06;22.80;99.90
32522;DHT22;18963;51.504;5.316;2023-08-12T10:37:32;23.10;99.90
32522;DHT22;18963;51.504;5.316;2023-08-12T10:39:58;23.50;99.90
32522;DHT22;18963;51.504;5.316;2023-08-12T10:42:43;23.80;99.90
32522;DHT22;18963;51.504;5.316;2023-08-12T10:45:10;24.00;99.90
32522;DHT22;18963;51.504;5.316;2023-08-12T10:47:39;24.20;99.90
32522;DHT22;18963;51.504;5.316;2023-08-12T10:50:05;24.20;99.90
32522;DHT22;18963;51.504;5.316;2023-08-12T10:52:32;24.20;99.90
32522;DHT22;18963;51.504;5.316;2023-08-12T10:55:18;24.30;99.90
32522;DHT22;18963;51.504;5.316;2023-08-12T10:57:44;24.30;99.90
32522;DHT22;18963;51.504;5.316;2023-08-12T11:00:10;24.20;99.90
32522;DHT22;18963;51.504;5.316;2023-08-12T11:02:36;24.10;99.90
32522;DHT22;18963;51.504;5.316;2023-08-12T11:05:03;24.10;99.90
32522;DHT22;18963;51.504;5.316;2023-08-12T11:09:58;24.20;99.90
32522;DHT22;18963;51.504;5.316;2023-08-12T11:12:31;24.40;99.90
32522;DHT22;18963;51.504;5.316;2023-08-12T11:14:58;24.40;99.90
32522;DHT22;18963;51.504;5.316;2023-08-12T11:17:29;24.60;99.90
32522;DHT22;18963;51.504;5.316;2023-08-12T11:19:55;24.70;99.90
32522;DHT22;18963;51.504;5.316;2023-08-12T11:22:20;25.00;99.90
32522;DHT22;18963;51.504;5.316;2023-08-12T11:24:46;25.10;99.90
32522;DHT22;18963;51.504;5.316;2023-08-12T11:27:12;25.00;99.90
32522;DHT22;18963;51.504;5.316;2023-08-12T11:29:39;24.80;99.90
32522;DHT22;18963;51.504;5.316;2023-08-12T11:32:07;24.70;99.90
32522;DHT22;18963;51.504;5.316;2023-08-12T11:34:33;24.60;99.90
32522;DHT22;18963;51.504;5.316;2023-08-12T11:36:58;24.50;99.90
32522;DHT22;18963;51.504;5.316;2023-08-12T11:39:24;24.40;99.90
32522;DHT22;18963;51.504;5.316;2023-08-12T11:41:49;24.30;99.90
32522;DHT22;18963;51.504;5.316;2023-08-12T11:44:21;24.10;99.90
32522;DHT22;18963;51.504;5.316;2023-08-12T11:46:47;24.10;99.90
32522;DHT22;18963;51.504;5.316;2023-08-12T11:49:12;24.00;99.90
32522;DHT22;18963;51.504;5.316;2023-08-12T11:51:38;23.90;99.90
32522;DHT22;18963;51.504;5.316;2023-08-12T11:54:03;23.90;99.90
32522;DHT22;18963;51.504;5.316;2023-08-12T11:56:29;24.00;99.90
32522;DHT22;18963;51.504;5.316;2023-08-12T11:58:55;24.10;99.90
32522;DHT22;18963;51.504;5.316;2023-08-12T12:01:21;24.30;99.90
32522;DHT22;18963;51.504;5.316;2023-08-12T12:03:52;24.40;99.90
32522;DHT22;18963;51.504;5.316;2023-08-12T12:06:27;24.40;99.90
32522;DHT22;18963;51.504;5.316;2023-08-12T12:08:52;24.40;99.90
32522;DHT22;18963;51.504;5.316;2023-08-12T12:11:18;24.50;99.90
32522;DHT22;18963;51.504;5.316;2023-08-12T12:13:45;24.60;99.90
32522;DHT22;18963;51.504;5.316;2023-08-12T12:16:12;24.70;99.90
32522;DHT22;18963;51.504;5.316;2023-08-12T12:18:38;24.80;99.90
32522;DHT22;18963;51.504;5.316;2023-08-12T12:21:03;25.00;99.90
32522;DHT22;18963;51.504;5.316;2023-08-12T12:23:29;25.50;99.90
32522;DHT22;18963;51.504;5.316;2023-08-12T12:26:02;25.80;99.90
32522;DHT22;18963;51.504;5.316;2023-08-12T12:28:27;25.90;99.90
32522;DHT22;18963;51.504;5.316;2023-08-12T12:30:53;25.80;99.90
32522;DHT22;18963;51.504;5.316;2023-08-12T12:33:18;26.00;99.90
32522;DHT22;18963;51.504;5.316;2023-08-12T12:35:44;25.90;99.90
32522;DHT22;18963;51.504;5.316;2023-08-12T12:38:09;26.00;99.90
32522;DHT22;18963;51.504;5.316;2023-08-12T12:40:35;26.10;99.90
32522;DHT22;18963;51.504;5.316;2023-08-12T12:43:00;26.20;99.90
32522;DHT22;18963;51.504;5.316;2023-08-12T12:45:28;26.30;99.90
32522;DHT22;18963;51.504;5.316;2023-08-12T12:47:53;26.30;99.90
32522;DHT22;18963;51.504;5.316;2023-08-12T12:50:19;26.40;99.90
32522;DHT22;18963;51.504;5.316;2023-08-12T12:52:44;26.30;99.90
32522;DHT22;18963;51.504;5.316;2023-08-12T12:55:10;26.20;99.90
32522;DHT22;18963;51.504;5.316;2023-08-12T12:57:35;26.00;99.90
32522;DHT22;18963;51.504;5.316;2023-08-12T13:00:01;25.90;99.90
32522;DHT22;18963;51.504;5.316;2023-08-12T13:02:26;25.70;99.90
32522;DHT22;18963;51.504;5.316;2023-08-12T13:04:52;25.70;99.90
32522;DHT22;18963;51.504;5.316;2023-08-12T13:07:17;25.70;99.90
32522;DHT22;18963;51.504;5.316;2023-08-12T13:09:43;25.60;99.90
32522;DHT22;18963;51.504;5.316;2023-08-12T13:12:08;25.60;99.90
32522;DHT22;18963;51.504;5.316;2023-08-12T13:14:34;25.50;99.90
32522;DHT22;18963;51.504;5.316;2023-08-12T13:16:59;25.50;99.90
32522;DHT22;18963;51.504;5.316;2023-08-12T13:19:25;25.40;99.90
32522;DHT22;18963;51.504;5.316;2023-08-12T13:21:50;25.30;99.90
32522;DHT22;18963;51.504;5.316;2023-08-12T13:24:16;25.10;99.90
32522;DHT22;18963;51.504;5.316;2023-08-12T13:26:42;24.90;99.90
32522;DHT22;18963;51.504;5.316;2023-08-12T13:29:08;24.60;99.90
32522;DHT22;18963;51.504;5.316;2023-08-12T13:31:33;24.30;99.90
32522;DHT22;18963;51.504;5.316;2023-08-12T13:33:59;24.20;99.90
32522;DHT22;18963;51.504;5.316;2023-08-12T13:36:24;24.00;99.90
32522;DHT22;18963;51.504;5.316;2023-08-12T13:38:50;24.00;99.90
32522;DHT22;18963;51.504;5.316;2023-08-12T13:41:15;23.90;99.90
32522;DHT22;18963;51.504;5.316;2023-08-12T13:43:41;24.10;99.90
32522;DHT22;18963;51.504;5.316;2023-08-12T13:46:06;24.20;99.90
32522;DHT22;18963;51.504;5.316;2023-08-12T13:48:32;24.40;99.90
32522;DHT22;18963;51.504;5.316;2023-08-12T13:50:57;24.50;99.90
32522;DHT22;18963;51.504;5.316;2023-08-12T13:53:23;24.50;99.90
32522;DHT22;18963;51.504;5.316;2023-08-12T13:55:49;24.50;99.90
32522;DHT22;18963;51.504;5.316;2023-08-12T13:58:15;24.30;99.90
32522;DHT22;18963;51.504;5.316;2023-08-12T14:00:40;24.20;99.90
32522;DHT22;18963;51.504;5.316;2023-08-12T14:03:05;24.00;99.90
32522;DHT22;18963;51.504;5.316;2023-08-12T14:05:31;23.90;99.90
32522;DHT22;18963;51.504;5.316;2023-08-12T14:07:56;23.80;99.90
32522;DHT22;18963;51.504;5.316;2023-08-12T14:10:22;23.70;99.90
32522;DHT22;18963;51.504;5.316;2023-08-12T14:12:47;23.80;99.90
32522;DHT22;18963;51.504;5.316;2023-08-12T14:15:14;23.90;99.90
32522;DHT22;18963;51.504;5.316;2023-08-12T14:17:39;23.80;99.90
32522;DHT22;18963;51.504;5.316;2023-08-12T14:20:05;23.80;99.90
32522;DHT22;18963;51.504;5.316;2023-08-12T14:22:33;23.80;99.90
32522;DHT22;18963;51.504;5.316;2023-08-12T14:24:59;23.70;99.90
32522;DHT22;18963;51.504;5.316;2023-08-12T14:27:24;23.60;99.90
32522;DHT22;18963;51.504;5.316;2023-08-12T14:29:50;23.60;99.90
32522;DHT22;18963;51.504;5.316;2023-08-12T14:32:15;23.60;99.90
32522;DHT22;18963;51.504;5.316;2023-08-12T14:34:44;23.60;99.90
32522;DHT22;18963;51.504;5.316;2023-08-12T14:37:11;23.70;99.90
32522;DHT22;18963;51.504;5.316;2023-08-12T14:39:37;23.70;99.90
32522;DHT22;18963;51.504;5.316;2023-08-12T14:42:02;23.70;99.90
32522;DHT22;18963;51.504;5.316;2023-08-12T14:44:29;23.70;99.90
32522;DHT22;18963;51.504;5.316;2023-08-12T14:46:56;23.70;99.90
32522;DHT22;18963;51.504;5.316;2023-08-12T14:49:21;23.70;99.90
32522;DHT22;18963;51.504;5.316;2023-08-12T14:51:47;23.60;99.90
32522;DHT22;18963;51.504;5.316;2023-08-12T14:54:12;23.60;99.90
32522;DHT22;18963;51.504;5.316;2023-08-12T14:56:37;23.60;99.90
32522;DHT22;18963;51.504;5.316;2023-08-12T14:59:03;23.60;99.90
32522;DHT22;18963;51.504;5.316;2023-08-12T15:01:29;23.50;99.90
32522;DHT22;18963;51.504;5.316;2023-08-12T15:03:55;23.40;99.90
32522;DHT22;18963;51.504;5.316;2023-08-12T15:06:21;23.40;99.90
32522;DHT22;18963;51.504;5.316;2023-08-12T15:08:46;23.40;99.90
32522;DHT22;18963;51.504;5.316;2023-08-12T15:11:12;23.30;99.90
32522;DHT22;18963;51.504;5.316;2023-08-12T15:13:37;23.40;99.90
32522;DHT22;18963;51.504;5.316;2023-08-12T15:16:03;23.40;99.90
32522;DHT22;18963;51.504;5.316;2023-08-12T15:18:28;23.40;99.90
32522;DHT22;18963;51.504;5.316;2023-08-12T15:20:54;23.40;99.90
32522;DHT22;18963;51.504;5.316;2023-08-12T15:23:19;23.40;99.90